sensor_id;sensor_type;location;lat;lon;timestamp;temperature;humidity
17715;DHT22;8977;50.902;4.314;2023-01-20T00:02:16;6.20;99.90
17715;DHT22;8977;50.902;4.314;2023-01-20T00:04:47;6.20;99.90
17715;DHT22;8977;50.902;4.314;2023-01-20T00:07:17;6.10;99.90
17715;DHT22;8977;50.902;4.314;2023-01-20T00:09:44;6.10;99.90
17715;DHT22;8977;50.902;4.314;2023-01-20T00:12:11;6.10;99.90
17715;DHT22;8977;50.902;4.314;2023-01-20T00:14:38;6.10;99.90
17715;DHT22;8977;50.902;4.314;2023-01-20T00:17:04;6.10;99.90
17715;DHT22;8977;50.902;4.314;2023-01-20T00:19:31;6.10;99.90
17715;DHT22;8977;50.902;4.314;2023-01-20T00:22:00;6.10;99.90
17715;DHT22;8977;50.902;4.314;2023-01-20T00:24:27;6.10;99.90
17715;DHT22;8977;50.902;4.314;2023-01-20T00:26:54;6.10;99.90
17715;DHT22;8977;50.902;4.314;2023-01-20T00:29:20;6.00;99.90
17715;DHT22;8977;50.902;4.314;2023-01-20T00:31:47;6.00;99.90
17715;DHT22;8977;50.902;4.314;2023-01-20T00:34:14;6.00;99.90
17715;DHT22;8977;50.902;4.314;2023-01-20T00:36:41;6.00;99.90
17715;DHT22;8977;50.902;4.314;2023-01-20T00:39:09;6.00;99.90
17715;DHT22;8977;50.902;4.314;2023-01-20T00:41:36;5.90;99.90
17715;DHT22;8977;50.902;4.314;2023-01-20T00:44:03;6.00;99.90
17715;DHT22;8977;50.902;4.314;2023-01-20T00:46:30;5.90;99.90
17715;DHT22;8977;50.902;4.314;2023-01-20T00:48:57;5.90;99.90
17715;DHT22;8977;50.902;4.314;2023-01-20T00:51:24;5.90;99.90
17715;DHT22;8977;50.902;4.314;2023-01-20T00:53:51;5.90;99.90
17715;DHT22;8977;50.902;4.314;2023-01-20T00:56:19;5.90;99.90
17715;DHT22;8977;50.902;4.314;2023-01-20T00:58:46;5.90;99.90
17715;DHT22;8977;50.902;4.314;2023-01-20T01:01:13;5.90;99.90
17715;DHT22;8977;50.902;4.314;2023-01-20T01:03:40;5.90;99.90
17715;DHT22;8977;50.902;4.314;2023-01-20T01:06:09;6.00;99.90
17715;DHT22;8977;50.902;4.314;2023-01-20T01:08:37;5.90;99.90
17715;DHT22;8977;50.902;4.314;2023-01-20T01:11:05;5.90;99.90
17715;DHT22;8977;50.902;4.314;2023-01-20T01:13:33;6.00;99.90
17715;DHT22;8977;50.902;4.314;2023-01-20T01:16:01;6.00;99.90
17715;DHT22;8977;50.902;4.314;2023-01-20T01:18:28;6.00;99.90
17715;DHT22;8977;50.902;4.314;2023-01-20T01:20:55;5.90;99.90
17715;DHT22;8977;50.902;4.314;2023-01-20T01:23:22;5.90;99.90
17715;DHT22;8977;50.902;4.314;2023-01-20T01:25:49;5.90;99.90
17715;DHT22;8977;50.902;4.314;2023-01-20T01:28:16;5.90;99.90
17715;DHT22;8977;50.902;4.314;2023-01-20T01:30:44;5.90;99.90
17715;DHT22;8977;50.902;4.314;2023-01-20T01:33:11;6.00;99.90
17715;DHT22;8977;50.902;4.314;2023-01-20T01:35:38;6.00;99.90
17715;DHT22;8977;50.902;4.314;2023-01-20T01:38:05;6.00;99.90
17715;DHT22;8977;50.902;4.314;2023-01-20T01:40:32;6.00;99.90
17715;DHT22;8977;50.902;4.314;2023-01-20T01:43:00;6.00;99.90
17715;DHT22;8977;50.902;4.314;2023-01-20T01:45:27;6.00;99.90
17715;DHT22;8977;50.902;4.314;2023-01-20T01:48:11;5.90;99.90
17715;DHT22;8977;50.902;4.314;2023-01-20T01:50:41;5.90;99.90
17715;DHT22;8977;50.902;4.314;2023-01-20T01:53:10;5.90;99.90
17715;DHT22;8977;50.902;4.314;2023-01-20T01:55:44;6.00;99.90
17715;DHT22;8977;50.902;4.314;2023-01-20T01:58:15;6.00;99.90
17715;DHT22;8977;50.902;4.314;2023-01-20T02:00:43;6.00;99.90
17715;DHT22;8977;50.902;4.314;2023-01-20T02:03:12;5.90;99.90
17715;DHT22;8977;50.902;4.314;2023-01-20T02:05:40;6.00;99.90
17715;DHT22;8977;50.902;4.314;2023-01-20T02:08:08;5.90;99.90
17715;DHT22;8977;50.902;4.314;2023-01-20T02:10:35;5.80;99.90
17715;DHT22;8977;50.902;4.314;2023-01-20T02:13:02;5.80;99.90
17715;DHT22;8977;50.902;4.314;2023-01-20T02:15:36;5.80;99.90
17715;DHT22;8977;50.902;4.314;2023-01-20T02:18:14;5.80;99.90
17715;DHT22;8977;50.902;4.314;2023-01-20T02:24:00;5.70;99.90
17715;DHT22;8977;50.902;4.314;2023-01-20T02:26:47;5.80;99.90
17715;DHT22;8977;50.902;4.314;2023-01-20T02:32:20;5.80;99.90
17715;DHT22;8977;50.902;4.314;2023-01-20T02:34:54;5.80;99.90
17715;DHT22;8977;50.902;4.314;2023-01-20T02:37:28;5.80;99.90
17715;DHT22;8977;50.902;4.314;2023-01-20T02:40:09;5.80;99.90
17715;DHT22;8977;50.902;4.314;2023-01-20T02:42:42;5.80;99.90
17715;DHT22;8977;50.902;4.314;2023-01-20T02:45:15;5.70;99.90
17715;DHT22;8977;50.902;4.314;2023-01-20T02:47:49;5.80;99.90
17715;DHT22;8977;50.902;4.314;2023-01-20T02:50:21;5.80;99.90
17715;DHT22;8977;50.902;4.314;2023-01-20T02:52:52;5.80;99.90
17715;DHT22;8977;50.902;4.314;2023-01-20T02:55:25;5.80;99.90
17715;DHT22;8977;50.902;4.314;2023-01-20T02:57:57;5.90;99.90
17715;DHT22;8977;50.902;4.314;2023-01-20T03:00:30;5.80;99.90
17715;DHT22;8977;50.902;4.314;2023-01-20T03:03:02;5.80;99.90
17715;DHT22;8977;50.902;4.314;2023-01-20T03:05:34;5.90;99.90
17715;DHT22;8977;50.902;4.314;2023-01-20T03:08:05;5.90;99.90
17715;DHT22;8977;50.902;4.314;2023-01-20T03:10:34;5.80;99.90
17715;DHT22;8977;50.902;4.314;2023-01-20T03:13:05;5.80;99.90
17715;DHT22;8977;50.902;4.314;2023-01-20T03:15:36;5.90;99.90
17715;DHT22;8977;50.902;4.314;2023-01-20T03:18:07;5.80;99.90
17715;DHT22;8977;50.902;4.314;2023-01-20T03:20:35;5.80;99.90
17715;DHT22;8977;50.902;4.314;2023-01-20T03:23:03;5.80;99.90
17715;DHT22;8977;50.902;4.314;2023-01-20T03:25:30;5.70;99.90
17715;DHT22;8977;50.902;4.314;2023-01-20T03:27:57;5.80;99.90
17715;DHT22;8977;50.902;4.314;2023-01-20T03:30:24;5.80;99.90
17715;DHT22;8977;50.902;4.314;2023-01-20T03:32:52;5.80;99.90
17715;DHT22;8977;50.902;4.314;2023-01-20T03:35:20;5.80;99.90
17715;DHT22;8977;50.902;4.314;2023-01-20T03:37:47;5.80;99.90
17715;DHT22;8977;50.902;4.314;2023-01-20T03:40:14;5.80;99.90
17715;DHT22;8977;50.902;4.314;2023-01-20T03:42:49;5.80;99.90
17715;DHT22;8977;50.902;4.314;2023-01-20T03:45:26;5.70;99.90
17715;DHT22;8977;50.902;4.314;2023-01-20T03:47:58;5.80;99.90
17715;DHT22;8977;50.902;4.314;2023-01-20T03:50:37;5.80;99.90
17715;DHT22;8977;50.902;4.314;2023-01-20T03:53:16;5.80;99.90
17715;DHT22;8977;50.902;4.314;2023-01-20T03:55:48;5.80;99.90
17715;DHT22;8977;50.902;4.314;2023-01-20T03:58:19;5.80;99.90
17715;DHT22;8977;50.902;4.314;2023-01-20T04:00:48;5.70;99.90
17715;DHT22;8977;50.902;4.314;2023-01-20T04:03:19;5.70;99.90
17715;DHT22;8977;50.902;4.314;2023-01-20T04:05:49;5.80;99.90
17715;DHT22;8977;50.902;4.314;2023-01-20T04:08:17;5.70;99.90
17715;DHT22;8977;50.902;4.314;2023-01-20T04:10:48;5.80;99.90
17715;DHT22;8977;50.902;4.314;2023-01-20T04:13:16;5.70;99.90
17715;DHT22;8977;50.902;4.314;2023-01-20T04:15:44;5.80;99.90
17715;DHT22;8977;50.902;4.314;2023-01-20T04:18:13;5.80;99.90
17715;DHT22;8977;50.902;4.314;2023-01-20T04:20:41;5.80;99.90
17715;DHT22;8977;50.902;4.314;2023-01-20T04:23:15;5.70;99.90
17715;DHT22;8977;50.902;4.314;2023-01-20T04:25:43;5.70;99.90
17715;DHT22;8977;50.902;4.314;2023-01-20T04:28:10;5.80;99.90
17715;DHT22;8977;50.902;4.314;2023-01-20T04:30:38;5.80;99.90
17715;DHT22;8977;50.902;4.314;2023-01-20T04:33:05;5.80;99.90
17715;DHT22;8977;50.902;4.314;2023-01-20T04:35:32;5.80;99.90
17715;DHT22;8977;50.902;4.314;2023-01-20T04:37:59;5.80;99.90
17715;DHT22;8977;50.902;4.314;2023-01-20T04:40:27;5.90;99.90
17715;DHT22;8977;50.902;4.314;2023-01-20T04:42:54;5.90;99.90
17715;DHT22;8977;50.902;4.314;2023-01-20T04:45:21;5.90;99.90
17715;DHT22;8977;50.902;4.314;2023-01-20T04:47:48;5.80;99.90
17715;DHT22;8977;50.902;4.314;2023-01-20T04:50:15;5.80;99.90
17715;DHT22;8977;50.902;4.314;2023-01-20T04:52:42;5.90;99.90
17715;DHT22;8977;50.902;4.314;2023-01-20T04:55:10;5.80;99.90
17715;DHT22;8977;50.902;4.314;2023-01-20T04:57:38;5.80;99.90
17715;DHT22;8977;50.902;4.314;2023-01-20T05:00:06;5.80;99.90
17715;DHT22;8977;50.902;4.314;2023-01-20T05:02:34;5.90;99.90
17715;DHT22;8977;50.902;4.314;2023-01-20T05:05:00;5.80;99.90
17715;DHT22;8977;50.902;4.314;2023-01-20T05:07:27;5.90;99.90
17715;DHT22;8977;50.902;4.314;2023-01-20T05:09:54;5.90;99.90
17715;DHT22;8977;50.902;4.314;2023-01-20T05:12:21;5.90;99.90
17715;DHT22;8977;50.902;4.314;2023-01-20T05:14:49;5.80;99.90
17715;DHT22;8977;50.902;4.314;2023-01-20T05:17:16;5.80;99.90
17715;DHT22;8977;50.902;4.314;2023-01-20T05:19:43;5.80;99.90
17715;DHT22;8977;50.902;4.314;2023-01-20T05:22:10;5.70;99.90
17715;DHT22;8977;50.902;4.314;2023-01-20T05:24:37;5.70;99.90
17715;DHT22;8977;50.902;4.314;2023-01-20T05:27:03;5.80;99.90
17715;DHT22;8977;50.902;4.314;2023-01-20T05:29:30;5.80;99.90
17715;DHT22;8977;50.902;4.314;2023-01-20T05:31:58;5.80;99.90
17715;DHT22;8977;50.902;4.314;2023-01-20T05:34:25;5.80;99.90
17715;DHT22;8977;50.902;4.314;2023-01-20T05:36:53;5.80;99.90
17715;DHT22;8977;50.902;4.314;2023-01-20T05:39:20;5.80;99.90
17715;DHT22;8977;50.902;4.314;2023-01-20T05:41:47;5.80;99.90
17715;DHT22;8977;50.902;4.314;2023-01-20T05:44:14;5.80;99.90
17715;DHT22;8977;50.902;4.314;2023-01-20T05:46:41;5.80;99.90
17715;DHT22;8977;50.902;4.314;2023-01-20T05:49:10;5.90;99.90
17715;DHT22;8977;50.902;4.314;2023-01-20T05:51:38;5.90;99.90
17715;DHT22;8977;50.902;4.314;2023-01-20T05:54:05;5.90;99.90
17715;DHT22;8977;50.902;4.314;2023-01-20T05:56:32;5.90;99.90
17715;DHT22;8977;50.902;4.314;2023-01-20T05:58:58;5.90;99.90
17715;DHT22;8977;50.902;4.314;2023-01-20T06:01:25;5.90;99.90
17715;DHT22;8977;50.902;4.314;2023-01-20T06:03:52;5.90;99.90
17715;DHT22;8977;50.902;4.314;2023-01-20T06:06:20;5.90;99.90
17715;DHT22;8977;50.902;4.314;2023-01-20T06:08:47;5.90;99.90
17715;DHT22;8977;50.902;4.314;2023-01-20T06:11:17;5.90;99.90
17715;DHT22;8977;50.902;4.314;2023-01-20T06:13:45;5.90;99.90
17715;DHT22;8977;50.902;4.314;2023-01-20T06:16:12;5.90;99.90
17715;DHT22;8977;50.902;4.314;2023-01-20T06:18:39;5.90;99.90
17715;DHT22;8977;50.902;4.314;2023-01-20T06:21:06;5.90;99.90
17715;DHT22;8977;50.902;4.314;2023-01-20T06:23:34;5.90;99.90
17715;DHT22;8977;50.902;4.314;2023-01-20T06:26:02;5.90;99.90
17715;DHT22;8977;50.902;4.314;2023-01-20T06:28:29;5.90;99.90
17715;DHT22;8977;50.902;4.314;2023-01-20T06:31:01;5.90;99.90
17715;DHT22;8977;50.902;4.314;2023-01-20T06:33:28;5.90;99.90
17715;DHT22;8977;50.902;4.314;2023-01-20T06:35:55;5.90;99.90
17715;DHT22;8977;50.902;4.314;2023-01-20T06:38:23;5.90;99.90
17715;DHT22;8977;50.902;4.314;2023-01-20T06:40:56;5.90;99.90
17715;DHT22;8977;50.902;4.314;2023-01-20T06:43:23;5.90;99.90
17715;DHT22;8977;50.902;4.314;2023-01-20T06:45:50;5.90;99.90
17715;DHT22;8977;50.902;4.314;2023-01-20T06:48:17;5.90;99.90
17715;DHT22;8977;50.902;4.314;2023-01-20T06:50:43;5.90;99.90
17715;DHT22;8977;50.902;4.314;2023-01-20T06:53:10;5.90;99.90
17715;DHT22;8977;50.902;4.314;2023-01-20T06:55:37;6.00;99.90
17715;DHT22;8977;50.902;4.314;2023-01-20T06:58:05;5.90;99.90
17715;DHT22;8977;50.902;4.314;2023-01-20T07:00:32;5.90;99.90
17715;DHT22;8977;50.902;4.314;2023-01-20T07:02:59;5.80;99.90
17715;DHT22;8977;50.902;4.314;2023-01-20T07:05:26;5.80;99.90
17715;DHT22;8977;50.902;4.314;2023-01-20T07:07:52;5.80;99.90
17715;DHT22;8977;50.902;4.314;2023-01-20T07:10:19;5.70;99.90
17715;DHT22;8977;50.902;4.314;2023-01-20T07:12:46;5.70;99.90
17715;DHT22;8977;50.902;4.314;2023-01-20T07:15:14;5.80;99.90
17715;DHT22;8977;50.902;4.314;2023-01-20T07:17:41;5.80;99.90
17715;DHT22;8977;50.902;4.314;2023-01-20T07:20:09;5.80;99.90
17715;DHT22;8977;50.902;4.314;2023-01-20T07:22:36;5.80;99.90
17715;DHT22;8977;50.902;4.314;2023-01-20T07:25:04;5.80;99.90
17715;DHT22;8977;50.902;4.314;2023-01-20T07:27:31;5.80;99.90
17715;DHT22;8977;50.902;4.314;2023-01-20T07:29:57;5.80;99.90
17715;DHT22;8977;50.902;4.314;2023-01-20T07:32:28;5.80;99.90
17715;DHT22;8977;50.902;4.314;2023-01-20T07:34:55;5.80;99.90
17715;DHT22;8977;50.902;4.314;2023-01-20T07:37:22;5.80;99.90
17715;DHT22;8977;50.902;4.314;2023-01-20T07:39:49;5.80;99.90
17715;DHT22;8977;50.902;4.314;2023-01-20T07:42:15;5.80;99.90
17715;DHT22;8977;50.902;4.314;2023-01-20T07:44:42;5.90;99.90
17715;DHT22;8977;50.902;4.314;2023-01-20T07:47:09;5.80;99.90
17715;DHT22;8977;50.902;4.314;2023-01-20T07:49:37;5.80;99.90
17715;DHT22;8977;50.902;4.314;2023-01-20T07:52:04;5.80;99.90
17715;DHT22;8977;50.902;4.314;2023-01-20T07:54:31;5.90;99.90
17715;DHT22;8977;50.902;4.314;2023-01-20T07:56:58;5.90;99.90
17715;DHT22;8977;50.902;4.314;2023-01-20T07:59:25;5.90;99.90
17715;DHT22;8977;50.902;4.314;2023-01-20T08:01:53;5.90;99.90
17715;DHT22;8977;50.902;4.314;2023-01-20T08:04:20;5.90;99.90
17715;DHT22;8977;50.902;4.314;2023-01-20T08:06:48;6.00;99.90
17715;DHT22;8977;50.902;4.314;2023-01-20T08:09:15;6.00;99.90
17715;DHT22;8977;50.902;4.314;2023-01-20T08:11:42;5.90;99.90
17715;DHT22;8977;50.902;4.314;2023-01-20T08:14:09;6.00;99.90
17715;DHT22;8977;50.902;4.314;2023-01-20T08:16:36;5.90;99.90
17715;DHT22;8977;50.902;4.314;2023-01-20T08:19:03;6.00;99.90
17715;DHT22;8977;50.902;4.314;2023-01-20T08:21:30;5.90;99.90
17715;DHT22;8977;50.902;4.314;2023-01-20T08:24:01;5.90;99.90
17715;DHT22;8977;50.902;4.314;2023-01-20T08:26:29;5.80;99.90
17715;DHT22;8977;50.902;4.314;2023-01-20T08:29:01;5.90;99.90
17715;DHT22;8977;50.902;4.314;2023-01-20T08:31:28;5.90;99.90
17715;DHT22;8977;50.902;4.314;2023-01-20T08:33:55;5.90;99.90
17715;DHT22;8977;50.902;4.314;2023-01-20T08:36:24;5.90;99.90
17715;DHT22;8977;50.902;4.314;2023-01-20T08:38:53;6.00;99.90
17715;DHT22;8977;50.902;4.314;2023-01-20T08:41:23;6.00;99.90
17715;DHT22;8977;50.902;4.314;2023-01-20T08:43:50;5.90;99.90
17715;DHT22;8977;50.902;4.314;2023-01-20T08:46:18;5.90;99.90
17715;DHT22;8977;50.902;4.314;2023-01-20T08:48:46;6.00;99.90
17715;DHT22;8977;50.902;4.314;2023-01-20T08:51:19;6.00;99.90
17715;DHT22;8977;50.902;4.314;2023-01-20T08:53:47;5.90;99.90
17715;DHT22;8977;50.902;4.314;2023-01-20T08:56:14;6.00;99.90
17715;DHT22;8977;50.902;4.314;2023-01-20T08:58:43;5.90;99.90
17715;DHT22;8977;50.902;4.314;2023-01-20T09:01:12;5.90;99.90
17715;DHT22;8977;50.902;4.314;2023-01-20T09:03:39;5.90;99.90
17715;DHT22;8977;50.902;4.314;2023-01-20T09:06:07;5.90;99.90
17715;DHT22;8977;50.902;4.314;2023-01-20T09:08:34;5.90;99.90
17715;DHT22;8977;50.902;4.314;2023-01-20T09:11:02;6.00;99.90
17715;DHT22;8977;50.902;4.314;2023-01-20T09:13:30;5.90;99.90
17715;DHT22;8977;50.902;4.314;2023-01-20T09:15:58;5.90;99.90
17715;DHT22;8977;50.902;4.314;2023-01-20T09:18:25;5.90;99.90
17715;DHT22;8977;50.902;4.314;2023-01-20T09:20:52;5.90;99.90
17715;DHT22;8977;50.902;4.314;2023-01-20T09:23:19;6.00;99.90
17715;DHT22;8977;50.902;4.314;2023-01-20T09:25:45;5.90;99.90
17715;DHT22;8977;50.902;4.314;2023-01-20T09:28:12;6.00;99.90
17715;DHT22;8977;50.902;4.314;2023-01-20T09:30:39;6.00;99.90
17715;DHT22;8977;50.902;4.314;2023-01-20T09:33:08;5.90;99.90
17715;DHT22;8977;50.902;4.314;2023-01-20T09:35:35;5.90;99.90
17715;DHT22;8977;50.902;4.314;2023-01-20T09:38:05;5.90;99.90
17715;DHT22;8977;50.902;4.314;2023-01-20T09:40:57;5.90;99.90
17715;DHT22;8977;50.902;4.314;2023-01-20T09:43:53;5.90;99.90
17715;DHT22;8977;50.902;4.314;2023-01-20T09:46:43;5.90;99.90
17715;DHT22;8977;50.902;4.314;2023-01-20T09:49:38;5.90;99.90
17715;DHT22;8977;50.902;4.314;2023-01-20T09:52:29;5.90;99.90
17715;DHT22;8977;50.902;4.314;2023-01-20T09:55:20;5.90;99.90
17715;DHT22;8977;50.902;4.314;2023-01-20T09:57:55;5.80;99.90
17715;DHT22;8977;50.902;4.314;2023-01-20T10:00:25;5.90;99.90
17715;DHT22;8977;50.902;4.314;2023-01-20T10:02:56;6.00;99.90
17715;DHT22;8977;50.902;4.314;2023-01-20T10:05:30;5.90;99.90
17715;DHT22;8977;50.902;4.314;2023-01-20T10:08:03;5.90;99.90
17715;DHT22;8977;50.902;4.314;2023-01-20T10:10:37;6.00;99.90
17715;DHT22;8977;50.902;4.314;2023-01-20T10:13:10;5.90;99.90
17715;DHT22;8977;50.902;4.314;2023-01-20T10:15:42;6.00;99.90
17715;DHT22;8977;50.902;4.314;2023-01-20T10:18:14;6.00;99.90
17715;DHT22;8977;50.902;4.314;2023-01-20T10:20:47;6.00;99.90
17715;DHT22;8977;50.902;4.314;2023-01-20T10:23:20;6.10;99.90
17715;DHT22;8977;50.902;4.314;2023-01-20T10:25:53;6.10;99.90
17715;DHT22;8977;50.902;4.314;2023-01-20T10:28:26;6.10;99.90
17715;DHT22;8977;50.902;4.314;2023-01-20T10:30:55;6.20;99.90
17715;DHT22;8977;50.902;4.314;2023-01-20T10:33:26;6.20;99.90
17715;DHT22;8977;50.902;4.314;2023-01-20T10:35:57;6.20;99.90
17715;DHT22;8977;50.902;4.314;2023-01-20T10:38:34;6.20;99.90
17715;DHT22;8977;50.902;4.314;2023-01-20T10:41:05;6.30;99.90
17715;DHT22;8977;50.902;4.314;2023-01-20T10:43:33;6.20;99.90
17715;DHT22;8977;50.902;4.314;2023-01-20T10:46:22;6.20;99.90
17715;DHT22;8977;50.902;4.314;2023-01-20T10:49:15;6.30;99.90
17715;DHT22;8977;50.902;4.314;2023-01-20T10:51:54;6.40;99.90
17715;DHT22;8977;50.902;4.314;2023-01-20T10:54:34;6.30;99.90
17715;DHT22;8977;50.902;4.314;2023-01-20T10:57:06;6.40;99.90
17715;DHT22;8977;50.902;4.314;2023-01-20T10:59:40;6.50;99.90
17715;DHT22;8977;50.902;4.314;2023-01-20T11:02:14;6.40;99.90
17715;DHT22;8977;50.902;4.314;2023-01-20T11:04:43;6.40;99.90
17715;DHT22;8977;50.902;4.314;2023-01-20T11:07:15;6.50;99.90
17715;DHT22;8977;50.902;4.314;2023-01-20T11:09:43;6.50;99.90
17715;DHT22;8977;50.902;4.314;2023-01-20T11:12:14;6.50;99.90
17715;DHT22;8977;50.902;4.314;2023-01-20T11:14:42;6.60;99.90
17715;DHT22;8977;50.902;4.314;2023-01-20T11:17:13;6.60;99.90
17715;DHT22;8977;50.902;4.314;2023-01-20T11:19:49;6.70;99.90
17715;DHT22;8977;50.902;4.314;2023-01-20T11:22:23;6.70;99.90
17715;DHT22;8977;50.902;4.314;2023-01-20T11:24:53;6.70;99.90
17715;DHT22;8977;50.902;4.314;2023-01-20T11:27:23;6.70;99.90
17715;DHT22;8977;50.902;4.314;2023-01-20T11:29:56;6.80;99.90
17715;DHT22;8977;50.902;4.314;2023-01-20T11:32:33;6.90;99.90
17715;DHT22;8977;50.902;4.314;2023-01-20T11:35:01;7.00;99.90
17715;DHT22;8977;50.902;4.314;2023-01-20T11:37:44;7.00;99.90
17715;DHT22;8977;50.902;4.314;2023-01-20T11:40:21;7.00;99.90
17715;DHT22;8977;50.902;4.314;2023-01-20T11:42:50;6.90;99.90
17715;DHT22;8977;50.902;4.314;2023-01-20T11:45:26;7.00;99.90
17715;DHT22;8977;50.902;4.314;2023-01-20T11:48:05;7.00;99.90
17715;DHT22;8977;50.902;4.314;2023-01-20T11:50:35;6.90;99.90
17715;DHT22;8977;50.902;4.314;2023-01-20T11:53:20;6.90;99.90
17715;DHT22;8977;50.902;4.314;2023-01-20T11:55:53;7.00;99.90
17715;DHT22;8977;50.902;4.314;2023-01-20T11:58:22;7.00;99.90
17715;DHT22;8977;50.902;4.314;2023-01-20T12:00:50;7.00;99.90
17715;DHT22;8977;50.902;4.314;2023-01-20T12:03:50;7.00;99.90
17715;DHT22;8977;50.902;4.314;2023-01-20T12:06:23;7.00;99.90
17715;DHT22;8977;50.902;4.314;2023-01-20T12:08:56;7.00;99.90
17715;DHT22;8977;50.902;4.314;2023-01-20T12:11:27;7.10;99.90
17715;DHT22;8977;50.902;4.314;2023-01-20T12:14:02;7.10;99.90
17715;DHT22;8977;50.902;4.314;2023-01-20T12:16:55;7.10;99.90
17715;DHT22;8977;50.902;4.314;2023-01-20T12:19:29;7.20;99.90
17715;DHT22;8977;50.902;4.314;2023-01-20T12:22:03;7.10;99.90
17715;DHT22;8977;50.902;4.314;2023-01-20T12:24:38;7.10;99.90
17715;DHT22;8977;50.902;4.314;2023-01-20T12:27:24;7.10;99.90
17715;DHT22;8977;50.902;4.314;2023-01-20T12:29:56;7.10;99.90
17715;DHT22;8977;50.902;4.314;2023-01-20T12:32:24;7.20;99.90
17715;DHT22;8977;50.902;4.314;2023-01-20T12:34:53;7.20;99.90
17715;DHT22;8977;50.902;4.314;2023-01-20T12:37:22;7.30;99.90
17715;DHT22;8977;50.902;4.314;2023-01-20T12:40:07;7.30;99.90
17715;DHT22;8977;50.902;4.314;2023-01-20T12:43:03;7.30;99.90
17715;DHT22;8977;50.902;4.314;2023-01-20T12:45:40;7.30;99.90
17715;DHT22;8977;50.902;4.314;2023-01-20T12:48:22;7.30;99.90
17715;DHT22;8977;50.902;4.314;2023-01-20T12:51:10;7.30;99.90
17715;DHT22;8977;50.902;4.314;2023-01-20T12:53:55;7.30;99.90
17715;DHT22;8977;50.902;4.314;2023-01-20T12:56:33;7.30;99.90
17715;DHT22;8977;50.902;4.314;2023-01-20T12:59:06;7.40;99.90
17715;DHT22;8977;50.902;4.314;2023-01-20T13:01:43;7.40;99.90
17715;DHT22;8977;50.902;4.314;2023-01-20T13:07:47;7.40;99.90
17715;DHT22;8977;50.902;4.314;2023-01-20T13:10:38;7.40;99.90
17715;DHT22;8977;50.902;4.314;2023-01-20T13:13:16;7.40;99.90
17715;DHT22;8977;50.902;4.314;2023-01-20T13:15:47;7.40;99.90
17715;DHT22;8977;50.902;4.314;2023-01-20T13:18:26;7.40;99.90
17715;DHT22;8977;50.902;4.314;2023-01-20T13:20:55;7.40;99.90
17715;DHT22;8977;50.902;4.314;2023-01-20T13:23:25;7.40;99.90
17715;DHT22;8977;50.902;4.314;2023-01-20T13:25:53;7.50;99.90
17715;DHT22;8977;50.902;4.314;2023-01-20T13:28:24;7.50;99.90
17715;DHT22;8977;50.902;4.314;2023-01-20T13:30:53;7.50;99.90
17715;DHT22;8977;50.902;4.314;2023-01-20T13:33:35;7.50;99.90
17715;DHT22;8977;50.902;4.314;2023-01-20T13:36:14;7.60;99.90
17715;DHT22;8977;50.902;4.314;2023-01-20T13:38:41;7.60;99.90
17715;DHT22;8977;50.902;4.314;2023-01-20T13:41:09;7.60;99.90
17715;DHT22;8977;50.902;4.314;2023-01-20T13:43:47;7.50;99.90
17715;DHT22;8977;50.902;4.314;2023-01-20T13:46:43;7.60;99.90
17715;DHT22;8977;50.902;4.314;2023-01-20T13:49:14;7.60;99.90
17715;DHT22;8977;50.902;4.314;2023-01-20T13:51:43;7.60;99.90
17715;DHT22;8977;50.902;4.314;2023-01-20T13:54:34;7.60;99.90
17715;DHT22;8977;50.902;4.314;2023-01-20T13:57:32;7.60;99.90
17715;DHT22;8977;50.902;4.314;2023-01-20T14:02:44;7.60;99.90
17715;DHT22;8977;50.902;4.314;2023-01-20T14:05:26;7.60;99.90
17715;DHT22;8977;50.902;4.314;2023-01-20T14:07:54;7.50;99.90
17715;DHT22;8977;50.902;4.314;2023-01-20T14:10:22;7.60;99.90
17715;DHT22;8977;50.902;4.314;2023-01-20T14:12:49;7.50;99.90
17715;DHT22;8977;50.902;4.314;2023-01-20T14:15:29;7.60;99.90
17715;DHT22;8977;50.902;4.314;2023-01-20T14:17:58;7.60;99.90
17715;DHT22;8977;50.902;4.314;2023-01-20T14:20:27;7.60;99.90
17715;DHT22;8977;50.902;4.314;2023-01-20T14:22:54;7.60;99.90
17715;DHT22;8977;50.902;4.314;2023-01-20T14:25:23;7.50;99.90
17715;DHT22;8977;50.902;4.314;2023-01-20T14:27:50;7.60;99.90
17715;DHT22;8977;50.902;4.314;2023-01-20T14:30:22;7.60;99.90
17715;DHT22;8977;50.902;4.314;2023-01-20T14:32:52;7.50;99.90
17715;DHT22;8977;50.902;4.314;2023-01-20T14:35:24;7.60;99.90
17715;DHT22;8977;50.902;4.314;2023-01-20T14:37:52;7.60;99.90
17715;DHT22;8977;50.902;4.314;2023-01-20T14:40:23;7.50;99.90
17715;DHT22;8977;50.902;4.314;2023-01-20T14:42:54;7.50;99.90
17715;DHT22;8977;50.902;4.314;2023-01-20T14:45:22;7.50;99.90
17715;DHT22;8977;50.902;4.314;2023-01-20T14:47:51;7.60;99.90
17715;DHT22;8977;50.902;4.314;2023-01-20T14:50:19;7.50;99.90
17715;DHT22;8977;50.902;4.314;2023-01-20T14:52:46;7.50;99.90
17715;DHT22;8977;50.902;4.314;2023-01-20T14:55:27;7.60;99.90
17715;DHT22;8977;50.902;4.314;2023-01-20T14:57:54;7.50;99.90
17715;DHT22;8977;50.902;4.314;2023-01-20T15:00:23;7.50;99.90
17715;DHT22;8977;50.902;4.314;2023-01-20T15:02:55;7.50;99.90
17715;DHT22;8977;50.902;4.314;2023-01-20T15:05:25;7.50;99.90
17715;DHT22;8977;50.902;4.314;2023-01-20T15:08:16;7.40;99.90
17715;DHT22;8977;50.902;4.314;2023-01-20T15:10:46;7.50;99.90
17715;DHT22;8977;50.902;4.314;2023-01-20T15:13:27;7.50;99.90
17715;DHT22;8977;50.902;4.314;2023-01-20T15:16:05;7.50;99.90
17715;DHT22;8977;50.902;4.314;2023-01-20T15:18:33;7.60;99.90
17715;DHT22;8977;50.902;4.314;2023-01-20T15:21:11;7.60;99.90
17715;DHT22;8977;50.902;4.314;2023-01-20T15:23:44;7.60;99.90
17715;DHT22;8977;50.902;4.314;2023-01-20T15:26:23;7.60;99.90
17715;DHT22;8977;50.902;4.314;2023-01-20T15:28:51;7.60;99.90
17715;DHT22;8977;50.902;4.314;2023-01-20T15:31:18;7.60;99.90
17715;DHT22;8977;50.902;4.314;2023-01-20T15:33:46;7.70;99.90
17715;DHT22;8977;50.902;4.314;2023-01-20T15:36:20;7.60;99.90
17715;DHT22;8977;50.902;4.314;2023-01-20T15:38:47;7.70;99.90
17715;DHT22;8977;50.902;4.314;2023-01-20T15:41:14;7.60;99.90
17715;DHT22;8977;50.902;4.314;2023-01-20T15:43:41;7.60;99.90
17715;DHT22;8977;50.902;4.314;2023-01-20T15:46:10;7.60;99.90
17715;DHT22;8977;50.902;4.314;2023-01-20T15:48:37;7.50;99.90
17715;DHT22;8977;50.902;4.314;2023-01-20T15:51:05;7.50;99.90
17715;DHT22;8977;50.902;4.314;2023-01-20T15:53:33;7.60;99.90
17715;DHT22;8977;50.902;4.314;2023-01-20T15:56:00;7.60;99.90
17715;DHT22;8977;50.902;4.314;2023-01-20T15:58:28;7.60;99.90
17715;DHT22;8977;50.902;4.314;2023-01-20T16:00:58;7.60;99.90
17715;DHT22;8977;50.902;4.314;2023-01-20T16:03:25;7.60;99.90
17715;DHT22;8977;50.902;4.314;2023-01-20T16:05:54;7.60;99.90
17715;DHT22;8977;50.902;4.314;2023-01-20T16:08:24;7.60;99.90
17715;DHT22;8977;50.902;4.314;2023-01-20T16:10:55;7.60;99.90
17715;DHT22;8977;50.902;4.314;2023-01-20T16:13:21;7.60;99.90
17715;DHT22;8977;50.902;4.314;2023-01-20T16:15:48;7.60;99.90
17715;DHT22;8977;50.902;4.314;2023-01-20T16:18:16;7.60;99.90
17715;DHT22;8977;50.902;4.314;2023-01-20T16:20:44;7.60;99.90
17715;DHT22;8977;50.902;4.314;2023-01-20T16:23:12;7.60;99.90
17715;DHT22;8977;50.902;4.314;2023-01-20T16:25:40;7.60;99.90
17715;DHT22;8977;50.902;4.314;2023-01-20T16:28:12;7.60;99.90
17715;DHT22;8977;50.902;4.314;2023-01-20T16:30:40;7.60;99.90
17715;DHT22;8977;50.902;4.314;2023-01-20T16:33:15;7.60;99.90
17715;DHT22;8977;50.902;4.314;2023-01-20T16:35:42;7.70;99.90
17715;DHT22;8977;50.902;4.314;2023-01-20T16:38:12;7.70;99.90